Impacts TAF Board
For situational awareness. Not to be used for flight planning purposes.
IDs:

KCNU - Chanute/Johnson Arpt, KS, US

Issued at 1120 UTC 20 Jul 2019
Updated at 1333 UTC 20 Jul 2019
Potential Impact None Slight Moderate High
Time1252Z 20/14Z 20/15Z 20/16Z 20/17Z 20/18Z 20/19Z 20/20Z 20/21Z 20/22Z 20/23Z 21/00Z 21/01Z 21/02Z>>
Type OBS PRVL PRVL PRVL PRVL PRVL PRVL PRVL PRVL PRVL PRVL PRVL PRVL PRVL
VIS 10 >6 >6 >6 >6 >6 >6 >6 >6 >6 >6 >6 >6 >6
CIG -- -- -- -- -- -- -- -- -- -- -- -- -- --
Cover CLR FEW FEW FEW FEW FEW SKC SKC SKC SKC SKC FEW FEW FEW
FltCat VFR VFR VFR VFR VFR VFR VFR VFR VFR VFR VFR VFR VFR VFR
WX -- -- -- -- -- -- -- -- -- -- -- -- -- --
WDir 180 190 190 190 190 190 190 190 190 190 190 180 180 180
WSpd 13 12 12 12 12 12 15 15 15 15 15 12 12 12
WGst 21 20 20 20 20 20 25 25 25 25 25 -- -- --
Raw TAF
KCNU 201120Z 2012/2112 18010KT P6SM FEW250
  FM201300 19012G20KT P6SM FEW250
  FM201900 19015G25KT P6SM SKC
  FM210000 18012KT P6SM FEW250


Raw METAR
KCNU 201252Z AUTO 18013G21KT 10SM CLR 28/22 A2990 RMK AO2 SLP109 T02780222
KCNU 201152Z AUTO 16011KT 10SM CLR 26/22 A2990 RMK AO2 SLP111 T02560217 10283 20256 53005
KCNU 201052Z AUTO 17009KT 10SM CLR 26/22 A2989 RMK AO2 SLP108 T02560217

METAR Board
Radar Display
Forecast Discussion
For situational awareness. Not to be used for flight planning purposes.